sensor_id;sensor_type;location;lat;lon;timestamp;pressure;altitude;pressure_sealevel;temperature;humidity
71735;BME280;59577;52.122;5.406;2023-12-20T00:01:01;101645.94;;;5.36;100.00
71735;BME280;59577;52.122;5.406;2023-12-20T00:03:29;101645.44;;;5.34;100.00
71735;BME280;59577;52.122;5.406;2023-12-20T00:06:07;101637.38;;;5.34;100.00
71735;BME280;59577;52.122;5.406;2023-12-20T00:08:34;101632.59;;;5.31;100.00
71735;BME280;59577;52.122;5.406;2023-12-20T00:11:00;101636.19;;;5.26;100.00
71735;BME280;59577;52.122;5.406;2023-12-20T00:13:27;101637.56;;;5.24;100.00
71735;BME280;59577;52.122;5.406;2023-12-20T00:15:53;101632.50;;;5.22;100.00
71735;BME280;59577;52.122;5.406;2023-12-20T00:18:20;101632.81;;;5.21;100.00
71735;BME280;59577;52.122;5.406;2023-12-20T00:20:46;101627.75;;;5.19;100.00
71735;BME280;59577;52.122;5.406;2023-12-20T00:23:13;101629.31;;;5.20;100.00
71735;BME280;59577;52.122;5.406;2023-12-20T00:25:39;101631.31;;;5.15;100.00
71735;BME280;59577;52.122;5.406;2023-12-20T00:28:06;101625.44;;;5.13;100.00
71735;BME280;59577;52.122;5.406;2023-12-20T00:30:33;101622.53;;;5.09;100.00
71735;BME280;59577;52.122;5.406;2023-12-20T00:33:00;101626.59;;;5.06;100.00
71735;BME280;59577;52.122;5.406;2023-12-20T00:35:26;101638.44;;;5.05;100.00
71735;BME280;59577;52.122;5.406;2023-12-20T00:37:53;101640.38;;;5.00;100.00
71735;BME280;59577;52.122;5.406;2023-12-20T00:40:19;101637.72;;;5.00;100.00
71735;BME280;59577;52.122;5.406;2023-12-20T00:42:47;101634.53;;;4.98;100.00
71735;BME280;59577;52.122;5.406;2023-12-20T00:45:14;101632.75;;;4.93;100.00
71735;BME280;59577;52.122;5.406;2023-12-20T00:47:41;101624.16;;;4.91;100.00
71735;BME280;59577;52.122;5.406;2023-12-20T00:50:09;101623.97;;;4.87;100.00
71735;BME280;59577;52.122;5.406;2023-12-20T00:52:36;101623.47;;;4.85;100.00
71735;BME280;59577;52.122;5.406;2023-12-20T00:55:03;101621.66;;;4.81;100.00
71735;BME280;59577;52.122;5.406;2023-12-20T00:57:30;101624.63;;;4.79;100.00
71735;BME280;59577;52.122;5.406;2023-12-20T00:59:57;101633.97;;;4.82;100.00
71735;BME280;59577;52.122;5.406;2023-12-20T01:02:24;101635.59;;;4.83;100.00
71735;BME280;59577;52.122;5.406;2023-12-20T01:04:51;101628.13;;;4.80;100.00
71735;BME280;59577;52.122;5.406;2023-12-20T01:07:17;101625.16;;;4.81;100.00
71735;BME280;59577;52.122;5.406;2023-12-20T01:09:44;101625.44;;;4.80;100.00
71735;BME280;59577;52.122;5.406;2023-12-20T01:12:11;101631.00;;;4.83;100.00
71735;BME280;59577;52.122;5.406;2023-12-20T01:14:37;101616.28;;;4.81;100.00
71735;BME280;59577;52.122;5.406;2023-12-20T01:17:06;101616.28;;;4.81;100.00
71735;BME280;59577;52.122;5.406;2023-12-20T01:19:32;101609.13;;;4.76;100.00
71735;BME280;59577;52.122;5.406;2023-12-20T01:21:59;101605.97;;;4.74;100.00
71735;BME280;59577;52.122;5.406;2023-12-20T01:24:26;101614.88;;;4.69;100.00
71735;BME280;59577;52.122;5.406;2023-12-20T01:26:52;101619.72;;;4.67;100.00
71735;BME280;59577;52.122;5.406;2023-12-20T01:29:19;101623.50;;;4.66;100.00
71735;BME280;59577;52.122;5.406;2023-12-20T01:31:45;101633.16;;;4.67;100.00
71735;BME280;59577;52.122;5.406;2023-12-20T01:34:12;101645.44;;;4.68;100.00
71735;BME280;59577;52.122;5.406;2023-12-20T01:36:39;101639.00;;;4.69;100.00
71735;BME280;59577;52.122;5.406;2023-12-20T01:39:05;101633.63;;;4.69;100.00
71735;BME280;59577;52.122;5.406;2023-12-20T01:41:49;101632.25;;;4.72;100.00
71735;BME280;59577;52.122;5.406;2023-12-20T01:44:16;101622.84;;;4.75;100.00
71735;BME280;59577;52.122;5.406;2023-12-20T01:46:42;101624.41;;;4.76;100.00
71735;BME280;59577;52.122;5.406;2023-12-20T01:49:09;101622.25;;;4.78;100.00
71735;BME280;59577;52.122;5.406;2023-12-20T01:51:36;101620.94;;;4.75;100.00
71735;BME280;59577;52.122;5.406;2023-12-20T01:54:03;101615.00;;;4.78;100.00
71735;BME280;59577;52.122;5.406;2023-12-20T01:56:30;101620.78;;;4.85;100.00
71735;BME280;59577;52.122;5.406;2023-12-20T01:58:57;101622.59;;;4.90;100.00
71735;BME280;59577;52.122;5.406;2023-12-20T02:01:24;101627.13;;;4.89;100.00
71735;BME280;59577;52.122;5.406;2023-12-20T02:03:51;101620.78;;;4.85;100.00
71735;BME280;59577;52.122;5.406;2023-12-20T02:06:18;101621.06;;;4.84;100.00
71735;BME280;59577;52.122;5.406;2023-12-20T02:08:45;101621.94;;;4.79;100.00
71735;BME280;59577;52.122;5.406;2023-12-20T02:11:11;101616.91;;;4.78;100.00
71735;BME280;59577;52.122;5.406;2023-12-20T02:13:38;101617.97;;;4.77;100.00
71735;BME280;59577;52.122;5.406;2023-12-20T02:16:04;101616.06;;;4.77;100.00
71735;BME280;59577;52.122;5.406;2023-12-20T02:18:31;101615.00;;;4.78;100.00
71735;BME280;59577;52.122;5.406;2023-12-20T02:20:58;101610.91;;;4.81;100.00
71735;BME280;59577;52.122;5.406;2023-12-20T02:23:25;101604.97;;;4.84;100.00
71735;BME280;59577;52.122;5.406;2023-12-20T02:25:51;101610.56;;;4.87;100.00
71735;BME280;59577;52.122;5.406;2023-12-20T02:28:18;101608.06;;;4.91;100.00
71735;BME280;59577;52.122;5.406;2023-12-20T02:30:45;101614.75;;;4.94;100.00
71735;BME280;59577;52.122;5.406;2023-12-20T02:33:13;101602.34;;;4.98;100.00
71735;BME280;59577;52.122;5.406;2023-12-20T02:35:41;101609.50;;;5.02;100.00
71735;BME280;59577;52.122;5.406;2023-12-20T02:38:07;101607.31;;;5.04;100.00
71735;BME280;59577;52.122;5.406;2023-12-20T02:40:33;101610.50;;;5.06;100.00
71735;BME280;59577;52.122;5.406;2023-12-20T02:43:00;101605.13;;;5.06;100.00
71735;BME280;59577;52.122;5.406;2023-12-20T02:45:27;101595.50;;;5.05;100.00
71735;BME280;59577;52.122;5.406;2023-12-20T02:47:53;101599.78;;;5.06;100.00
71735;BME280;59577;52.122;5.406;2023-12-20T02:50:20;101595.22;;;5.07;100.00
71735;BME280;59577;52.122;5.406;2023-12-20T02:52:47;101593.63;;;5.06;100.00
71735;BME280;59577;52.122;5.406;2023-12-20T02:55:13;101589.84;;;5.07;100.00
71735;BME280;59577;52.122;5.406;2023-12-20T02:57:40;101587.16;;;5.07;100.00
71735;BME280;59577;52.122;5.406;2023-12-20T03:00:09;101585.84;;;5.04;100.00
71735;BME280;59577;52.122;5.406;2023-12-20T03:02:37;101581.56;;;5.03;100.00
71735;BME280;59577;52.122;5.406;2023-12-20T03:05:03;101580.00;;;5.02;100.00
71735;BME280;59577;52.122;5.406;2023-12-20T03:07:30;101585.06;;;5.04;100.00
71735;BME280;59577;52.122;5.406;2023-12-20T03:09:56;101575.91;;;5.05;100.00
71735;BME280;59577;52.122;5.406;2023-12-20T03:12:43;101575.91;;;5.05;100.00
71735;BME280;59577;52.122;5.406;2023-12-20T03:15:10;101575.91;;;5.05;100.00
71735;BME280;59577;52.122;5.406;2023-12-20T03:17:37;101576.63;;;5.11;100.00
71735;BME280;59577;52.122;5.406;2023-12-20T03:20:03;101570.66;;;5.14;100.00
71735;BME280;59577;52.122;5.406;2023-12-20T03:22:30;101573.88;;;5.16;100.00
71735;BME280;59577;52.122;5.406;2023-12-20T03:24:57;101574.94;;;5.15;100.00
71735;BME280;59577;52.122;5.406;2023-12-20T03:27:23;101563.44;;;5.14;100.00
71735;BME280;59577;52.122;5.406;2023-12-20T03:29:50;101559.34;;;5.17;100.00
71735;BME280;59577;52.122;5.406;2023-12-20T03:32:16;101553.69;;;5.18;100.00
71735;BME280;59577;52.122;5.406;2023-12-20T03:34:43;101556.66;;;5.17;100.00
71735;BME280;59577;52.122;5.406;2023-12-20T03:37:09;101565.81;;;5.16;100.00
71735;BME280;59577;52.122;5.406;2023-12-20T03:39:36;101558.56;;;5.16;100.00
71735;BME280;59577;52.122;5.406;2023-12-20T03:42:03;101566.00;;;5.19;100.00
71735;BME280;59577;52.122;5.406;2023-12-20T03:44:29;101560.34;;;5.21;100.00
71735;BME280;59577;52.122;5.406;2023-12-20T03:46:56;101566.22;;;5.23;100.00
71735;BME280;59577;52.122;5.406;2023-12-20T03:49:22;101567.50;;;5.25;100.00
71735;BME280;59577;52.122;5.406;2023-12-20T03:51:49;101572.56;;;5.27;100.00
71735;BME280;59577;52.122;5.406;2023-12-20T03:54:15;101570.19;;;5.25;100.00
71735;BME280;59577;52.122;5.406;2023-12-20T03:56:42;101568.91;;;5.23;100.00
71735;BME280;59577;52.122;5.406;2023-12-20T03:59:08;101562.72;;;5.22;100.00
71735;BME280;59577;52.122;5.406;2023-12-20T04:01:35;101552.06;;;5.17;100.00
71735;BME280;59577;52.122;5.406;2023-12-20T04:04:02;101564.41;;;5.18;100.00
71735;BME280;59577;52.122;5.406;2023-12-20T04:06:29;101563.81;;;5.21;100.00
71735;BME280;59577;52.122;5.406;2023-12-20T04:08:56;101564.53;;;5.27;100.00
71735;BME280;59577;52.122;5.406;2023-12-20T04:11:22;101556.66;;;5.31;100.00
71735;BME280;59577;52.122;5.406;2023-12-20T04:13:48;101562.22;;;5.34;100.00
71735;BME280;59577;52.122;5.406;2023-12-20T04:16:15;101560.84;;;5.37;100.00
71735;BME280;59577;52.122;5.406;2023-12-20T04:18:42;101555.19;;;5.38;100.00
71735;BME280;59577;52.122;5.406;2023-12-20T04:21:08;101549.81;;;5.38;100.00
71735;BME280;59577;52.122;5.406;2023-12-20T04:23:35;101551.97;;;5.36;100.00
71735;BME280;59577;52.122;5.406;2023-12-20T04:26:01;101554.19;;;5.34;100.00
71735;BME280;59577;52.122;5.406;2023-12-20T04:28:27;101551.97;;;5.36;100.00
71735;BME280;59577;52.122;5.406;2023-12-20T04:30:56;101549.19;;;5.41;100.00
71735;BME280;59577;52.122;5.406;2023-12-20T04:33:23;101553.97;;;5.44;100.00
71735;BME280;59577;52.122;5.406;2023-12-20T04:35:49;101559.53;;;5.48;100.00
71735;BME280;59577;52.122;5.406;2023-12-20T04:38:16;101557.06;;;5.52;100.00
71735;BME280;59577;52.122;5.406;2023-12-20T04:40:42;101562.63;;;5.55;100.00
71735;BME280;59577;52.122;5.406;2023-12-20T04:43:09;101553.78;;;5.55;100.00
71735;BME280;59577;52.122;5.406;2023-12-20T04:45:35;101554.78;;;5.59;100.00
71735;BME280;59577;52.122;5.406;2023-12-20T04:48:03;101551.59;;;5.57;100.00
71735;BME280;59577;52.122;5.406;2023-12-20T04:50:30;101554.78;;;5.59;100.00
71735;BME280;59577;52.122;5.406;2023-12-20T04:52:57;101543.44;;;5.62;100.00
71735;BME280;59577;52.122;5.406;2023-12-20T04:55:23;101543.63;;;5.65;100.00
71735;BME280;59577;52.122;5.406;2023-12-20T04:57:50;101533.41;;;5.68;100.00
71735;BME280;59577;52.122;5.406;2023-12-20T05:00:17;101540.22;;;5.74;100.00
71735;BME280;59577;52.122;5.406;2023-12-20T05:02:44;101535.06;;;5.77;100.00
71735;BME280;59577;52.122;5.406;2023-12-20T05:05:10;101534.75;;;5.79;100.00
71735;BME280;59577;52.122;5.406;2023-12-20T05:07:37;101534.75;;;5.79;100.00
71735;BME280;59577;52.122;5.406;2023-12-20T05:10:04;101532.84;;;5.79;100.00
71735;BME280;59577;52.122;5.406;2023-12-20T05:12:30;101539.03;;;5.80;100.00
71735;BME280;59577;52.122;5.406;2023-12-20T05:14:58;101530.69;;;5.81;100.00
71735;BME280;59577;52.122;5.406;2023-12-20T05:17:25;101544.91;;;5.82;100.00
71735;BME280;59577;52.122;5.406;2023-12-20T05:19:52;101537.34;;;5.84;100.00
71735;BME280;59577;52.122;5.406;2023-12-20T05:22:19;101546.69;;;5.87;100.00
71735;BME280;59577;52.122;5.406;2023-12-20T05:24:46;101540.22;;;5.88;100.00
71735;BME280;59577;52.122;5.406;2023-12-20T05:27:13;101531.66;;;5.86;100.00
71735;BME280;59577;52.122;5.406;2023-12-20T05:29:39;101540.22;;;5.88;100.00
71735;BME280;59577;52.122;5.406;2023-12-20T05:32:06;101542.91;;;5.88;100.00
71735;BME280;59577;52.122;5.406;2023-12-20T05:34:32;101537.53;;;5.88;100.00
71735;BME280;59577;52.122;5.406;2023-12-20T05:36:59;101544.78;;;5.87;100.00
71735;BME280;59577;52.122;5.406;2023-12-20T05:39:28;101543.09;;;5.91;100.00
71735;BME280;59577;52.122;5.406;2023-12-20T05:41:54;101546.59;;;5.92;100.00
71735;BME280;59577;52.122;5.406;2023-12-20T05:44:21;101539.78;;;5.94;100.00
71735;BME280;59577;52.122;5.406;2023-12-20T05:46:47;101539.00;;;5.94;100.00
71735;BME280;59577;52.122;5.406;2023-12-20T05:49:14;101532.53;;;5.95;100.00
71735;BME280;59577;52.122;5.406;2023-12-20T05:51:41;101540.31;;;5.96;100.00
71735;BME280;59577;52.122;5.406;2023-12-20T05:54:09;101536.53;;;5.97;100.00
71735;BME280;59577;52.122;5.406;2023-12-20T05:56:35;101539.53;;;5.96;100.00
71735;BME280;59577;52.122;5.406;2023-12-20T05:59:02;101539.22;;;5.97;100.00
71735;BME280;59577;52.122;5.406;2023-12-20T06:01:28;101538.94;;;5.99;100.00
71735;BME280;59577;52.122;5.406;2023-12-20T06:03:55;101534.63;;;5.98;100.00
71735;BME280;59577;52.122;5.406;2023-12-20T06:06:21;101539.72;;;5.99;100.00
71735;BME280;59577;52.122;5.406;2023-12-20T06:08:48;101541.31;;;6.00;100.00
71735;BME280;59577;52.122;5.406;2023-12-20T06:11:14;101541.31;;;6.00;100.00
71735;BME280;59577;52.122;5.406;2023-12-20T06:13:41;101527.88;;;6.00;100.00
71735;BME280;59577;52.122;5.406;2023-12-20T06:16:07;101532.94;;;6.02;100.00
71735;BME280;59577;52.122;5.406;2023-12-20T06:18:34;101531.84;;;6.03;100.00
71735;BME280;59577;52.122;5.406;2023-12-20T06:21:01;101526.47;;;6.03;100.00
71735;BME280;59577;52.122;5.406;2023-12-20T06:23:28;101533.13;;;6.06;100.00
71735;BME280;59577;52.122;5.406;2023-12-20T06:25:55;101529.34;;;6.07;100.00
71735;BME280;59577;52.122;5.406;2023-12-20T06:28:22;101524.44;;;6.09;100.00
71735;BME280;59577;52.122;5.406;2023-12-20T06:30:49;101531.13;;;6.11;100.00
71735;BME280;59577;52.122;5.406;2023-12-20T06:33:16;101544.75;;;6.15;100.00
71735;BME280;59577;52.122;5.406;2023-12-20T06:35:42;101533.41;;;6.18;100.00
71735;BME280;59577;52.122;5.406;2023-12-20T06:38:09;101524.53;;;6.17;100.00
71735;BME280;59577;52.122;5.406;2023-12-20T06:40:35;101522.81;;;6.21;100.00
71735;BME280;59577;52.122;5.406;2023-12-20T06:43:02;101524.41;;;6.22;100.00
71735;BME280;59577;52.122;5.406;2023-12-20T06:45:41;101532.75;;;6.21;100.00
71735;BME280;59577;52.122;5.406;2023-12-20T06:48:08;101521.53;;;6.19;100.00
71735;BME280;59577;52.122;5.406;2023-12-20T06:50:35;101520.13;;;6.21;100.00
71735;BME280;59577;52.122;5.406;2023-12-20T06:53:06;101509.38;;;6.21;100.00
71735;BME280;59577;52.122;5.406;2023-12-20T06:55:35;101504.00;;;6.21;100.00
71735;BME280;59577;52.122;5.406;2023-12-20T06:58:04;101514.75;;;6.21;100.00
71735;BME280;59577;52.122;5.406;2023-12-20T07:00:32;101516.63;;;6.21;100.00
71735;BME280;59577;52.122;5.406;2023-12-20T07:02:59;101514.47;;;6.23;100.00
71735;BME280;59577;52.122;5.406;2023-12-20T07:05:25;101523.00;;;6.25;100.00
71735;BME280;59577;52.122;5.406;2023-12-20T07:07:52;101515.25;;;6.24;100.00
71735;BME280;59577;52.122;5.406;2023-12-20T07:10:18;101514.16;;;6.25;100.00
71735;BME280;59577;52.122;5.406;2023-12-20T07:12:45;101519.53;;;6.25;100.00
71735;BME280;59577;52.122;5.406;2023-12-20T07:15:12;101517.81;;;6.29;100.00
71735;BME280;59577;52.122;5.406;2023-12-20T07:17:38;101514.53;;;6.32;100.00
71735;BME280;59577;52.122;5.406;2023-12-20T07:20:05;101509.94;;;6.32;100.00
71735;BME280;59577;52.122;5.406;2023-12-20T07:22:36;101506.16;;;6.33;100.00
71735;BME280;59577;52.122;5.406;2023-12-20T07:25:03;101501.56;;;6.34;100.00
71735;BME280;59577;52.122;5.406;2023-12-20T07:27:30;101505.81;;;6.35;100.00
71735;BME280;59577;52.122;5.406;2023-12-20T07:29:57;101510.91;;;6.36;100.00
71735;BME280;59577;52.122;5.406;2023-12-20T07:32:24;101502.34;;;6.34;100.00
71735;BME280;59577;52.122;5.406;2023-12-20T07:34:50;101505.81;;;6.35;100.00
71735;BME280;59577;52.122;5.406;2023-12-20T07:37:17;101496.66;;;6.36;100.00
71735;BME280;59577;52.122;5.406;2023-12-20T07:39:43;101487.81;;;6.35;100.00
71735;BME280;59577;52.122;5.406;2023-12-20T07:42:10;101493.19;;;6.35;100.00
71735;BME280;59577;52.122;5.406;2023-12-20T07:44:37;101502.53;;;6.38;100.00
71735;BME280;59577;52.122;5.406;2023-12-20T07:47:04;101503.00;;;6.40;100.00
71735;BME280;59577;52.122;5.406;2023-12-20T07:49:31;101513.78;;;6.40;100.00
71735;BME280;59577;52.122;5.406;2023-12-20T07:51:58;101508.09;;;6.42;100.00
71735;BME280;59577;52.122;5.406;2023-12-20T07:54:25;101515.06;;;6.43;100.00
71735;BME280;59577;52.122;5.406;2023-12-20T07:56:52;101515.53;;;6.45;100.00
71735;BME280;59577;52.122;5.406;2023-12-20T07:59:18;101524.41;;;6.45;100.00
71735;BME280;59577;52.122;5.406;2023-12-20T08:01:57;101531.38;;;6.46;100.00
71735;BME280;59577;52.122;5.406;2023-12-20T08:04:24;101527.78;;;6.51;100.00
71735;BME280;59577;52.122;5.406;2023-12-20T08:06:51;101530.16;;;6.52;100.00
71735;BME280;59577;52.122;5.406;2023-12-20T08:09:18;101533.34;;;6.54;100.00
71735;BME280;59577;52.122;5.406;2023-12-20T08:11:46;101538.13;;;6.57;100.00
71735;BME280;59577;52.122;5.406;2023-12-20T08:14:13;101540.47;;;6.59;100.00
71735;BME280;59577;52.122;5.406;2023-12-20T08:16:39;101537.00;;;6.58;100.00
71735;BME280;59577;52.122;5.406;2023-12-20T08:19:06;101538.59;;;6.59;100.00
71735;BME280;59577;52.122;5.406;2023-12-20T08:21:33;101527.53;;;6.61;100.00
71735;BME280;59577;52.122;5.406;2023-12-20T08:24:04;101531.00;;;6.62;100.00
71735;BME280;59577;52.122;5.406;2023-12-20T08:26:30;101526.41;;;6.62;100.00
71735;BME280;59577;52.122;5.406;2023-12-20T08:28:57;101526.09;;;6.64;100.00
71735;BME280;59577;52.122;5.406;2023-12-20T08:31:27;101517.25;;;6.63;100.00
71735;BME280;59577;52.122;5.406;2023-12-20T08:33:53;101532.28;;;6.64;100.00
71735;BME280;59577;52.122;5.406;2023-12-20T08:36:21;101530.41;;;6.65;100.00
71735;BME280;59577;52.122;5.406;2023-12-20T08:38:49;101523.59;;;6.67;100.00
71735;BME280;59577;52.122;5.406;2023-12-20T08:41:16;101514.75;;;6.67;100.00
71735;BME280;59577;52.122;5.406;2023-12-20T08:43:44;101514.75;;;6.67;100.00
71735;BME280;59577;52.122;5.406;2023-12-20T08:46:10;101518.22;;;6.67;100.00
71735;BME280;59577;52.122;5.406;2023-12-20T08:48:38;101520.28;;;6.70;100.00
71735;BME280;59577;52.122;5.406;2023-12-20T08:51:04;101518.88;;;6.73;100.00
71735;BME280;59577;52.122;5.406;2023-12-20T08:53:33;101517.00;;;6.73;100.00
71735;BME280;59577;52.122;5.406;2023-12-20T08:56:00;101516.19;;;6.73;100.00
71735;BME280;59577;52.122;5.406;2023-12-20T08:58:28;101519.69;;;6.73;100.00
71735;BME280;59577;52.122;5.406;2023-12-20T09:00:55;101520.78;;;6.72;100.00
71735;BME280;59577;52.122;5.406;2023-12-20T09:03:23;101521.91;;;6.71;100.00
71735;BME280;59577;52.122;5.406;2023-12-20T09:05:49;101523.47;;;6.72;100.00
71735;BME280;59577;52.122;5.406;2023-12-20T09:08:16;101521.91;;;6.71;100.00
71735;BME280;59577;52.122;5.406;2023-12-20T09:10:42;101519.22;;;6.71;100.00
71735;BME280;59577;52.122;5.406;2023-12-20T09:13:09;101515.22;;;6.69;100.00
71735;BME280;59577;52.122;5.406;2023-12-20T09:15:35;101518.69;;;6.69;100.00
71735;BME280;59577;52.122;5.406;2023-12-20T09:18:03;101518.22;;;6.67;100.00
71735;BME280;59577;52.122;5.406;2023-12-20T09:20:30;101516.66;;;6.66;100.00
71735;BME280;59577;52.122;5.406;2023-12-20T09:22:57;101519.00;;;6.68;100.00
71735;BME280;59577;52.122;5.406;2023-12-20T09:25:23;101516.00;;;6.69;100.00
71735;BME280;59577;52.122;5.406;2023-12-20T09:27:50;101503.38;;;6.70;100.00
71735;BME280;59577;52.122;5.406;2023-12-20T09:30:17;101517.31;;;6.72;100.00
71735;BME280;59577;52.122;5.406;2023-12-20T09:32:53;101508.28;;;6.76;100.00
71735;BME280;59577;52.122;5.406;2023-12-20T09:35:19;101510.38;;;6.80;100.00
71735;BME280;59577;52.122;5.406;2023-12-20T09:37:46;101502.97;;;6.85;100.00
71735;BME280;59577;52.122;5.406;2023-12-20T09:40:13;101516.28;;;6.90;100.00
71735;BME280;59577;52.122;5.406;2023-12-20T09:42:57;101514.56;;;6.94;100.00
71735;BME280;59577;52.122;5.406;2023-12-20T09:45:24;101510.94;;;6.99;100.00
71735;BME280;59577;52.122;5.406;2023-12-20T09:47:53;101514.13;;;7.01;100.00
71735;BME280;59577;52.122;5.406;2023-12-20T09:50:21;101515.22;;;7.00;100.00
71735;BME280;59577;52.122;5.406;2023-12-20T09:52:50;101516.00;;;7.01;100.00
71735;BME280;59577;52.122;5.406;2023-12-20T09:55:18;101523.28;;;7.00;100.00
71735;BME280;59577;52.122;5.406;2023-12-20T09:57:47;101522.06;;;7.06;100.00
71735;BME280;59577;52.122;5.406;2023-12-20T10:00:14;101510.50;;;7.14;100.00
71735;BME280;59577;52.122;5.406;2023-12-20T10:02:45;101518.78;;;7.18;100.00
71735;BME280;59577;52.122;5.406;2023-12-20T10:05:17;101520.84;;;7.21;100.00
71735;BME280;59577;52.122;5.406;2023-12-20T10:07:47;101534.63;;;7.28;100.00
71735;BME280;59577;52.122;5.406;2023-12-20T10:10:14;101531.63;;;7.30;100.00
71735;BME280;59577;52.122;5.406;2023-12-20T10:13:01;101532.13;;;7.32;100.00
71735;BME280;59577;52.122;5.406;2023-12-20T10:15:28;101531.31;;;7.31;100.00
71735;BME280;59577;52.122;5.406;2023-12-20T10:17:54;101529.44;;;7.32;100.00
71735;BME280;59577;52.122;5.406;2023-12-20T10:20:26;101537.19;;;7.33;100.00
71735;BME280;59577;52.122;5.406;2023-12-20T10:22:55;101522.63;;;7.34;100.00
71735;BME280;59577;52.122;5.406;2023-12-20T10:25:22;101530.72;;;7.34;100.00
71735;BME280;59577;52.122;5.406;2023-12-20T10:27:51;101531.19;;;7.37;100.00
71735;BME280;59577;52.122;5.406;2023-12-20T10:30:34;101523.75;;;7.42;100.00
71735;BME280;59577;52.122;5.406;2023-12-20T10:33:01;101519.16;;;7.43;100.00
71735;BME280;59577;52.122;5.406;2023-12-20T10:35:27;101511.56;;;7.45;100.00
71735;BME280;59577;52.122;5.406;2023-12-20T10:37:56;101511.41;;;7.50;100.00
71735;BME280;59577;52.122;5.406;2023-12-20T10:40:23;101511.59;;;7.53;100.00
71735;BME280;59577;52.122;5.406;2023-12-20T10:42:51;101520.13;;;7.56;100.00
71735;BME280;59577;52.122;5.406;2023-12-20T10:45:18;101504.59;;;7.52;100.00
71735;BME280;59577;52.122;5.406;2023-12-20T10:47:46;101504.59;;;7.52;100.00
71735;BME280;59577;52.122;5.406;2023-12-20T10:50:14;101504.94;;;7.60;100.00
71735;BME280;59577;52.122;5.406;2023-12-20T10:52:41;101504.47;;;7.66;100.00
71735;BME280;59577;52.122;5.406;2023-12-20T10:55:08;101496.06;;;7.68;100.00
71735;BME280;59577;52.122;5.406;2023-12-20T10:57:36;101497.34;;;7.70;100.00
71735;BME280;59577;52.122;5.406;2023-12-20T11:00:03;101499.91;;;7.76;100.00
71735;BME280;59577;52.122;5.406;2023-12-20T11:02:32;101494.81;;;7.74;100.00
71735;BME280;59577;52.122;5.406;2023-12-20T11:05:06;101489.59;;;7.78;100.00
71735;BME280;59577;52.122;5.406;2023-12-20T11:07:42;101483.72;;;7.84;100.00
71735;BME280;59577;52.122;5.406;2023-12-20T11:10:23;101493.72;;;7.93;100.00
71735;BME280;59577;52.122;5.406;2023-12-20T11:13:08;101478.94;;;8.16;100.00
71735;BME280;59577;52.122;5.406;2023-12-20T11:15:39;101477.03;;;8.52;100.00
71735;BME280;59577;52.122;5.406;2023-12-20T11:18:05;101486.47;;;8.75;100.00
71735;BME280;59577;52.122;5.406;2023-12-20T11:20:37;101482.66;;;8.76;100.00
71735;BME280;59577;52.122;5.406;2023-12-20T11:23:05;101475.28;;;8.94;100.00
71735;BME280;59577;52.122;5.406;2023-12-20T11:25:56;101464.28;;;8.61;100.00
71735;BME280;59577;52.122;5.406;2023-12-20T11:28:26;101457.66;;;8.41;100.00
71735;BME280;59577;52.122;5.406;2023-12-20T11:30:54;101456.72;;;8.28;100.00
71735;BME280;59577;52.122;5.406;2023-12-20T11:33:23;101457.66;;;8.32;100.00
71735;BME280;59577;52.122;5.406;2023-12-20T11:35:55;101458.31;;;8.46;100.00
71735;BME280;59577;52.122;5.406;2023-12-20T11:38:22;101461.63;;;8.52;100.00
71735;BME280;59577;52.122;5.406;2023-12-20T11:40:50;101461.13;;;8.59;100.00
71735;BME280;59577;52.122;5.406;2023-12-20T11:43:36;101458.75;;;8.57;100.00
71735;BME280;59577;52.122;5.406;2023-12-20T11:46:06;101454.63;;;8.51;100.00
71735;BME280;59577;52.122;5.406;2023-12-20T11:48:38;101450.03;;;8.52;100.00
71735;BME280;59577;52.122;5.406;2023-12-20T11:51:12;101446.88;;;8.50;100.00
71735;BME280;59577;52.122;5.406;2023-12-20T11:53:42;101450.84;;;8.52;100.00
71735;BME280;59577;52.122;5.406;2023-12-20T11:56:10;101446.38;;;8.56;100.00
71735;BME280;59577;52.122;5.406;2023-12-20T11:58:37;101440.66;;;8.58;100.00
71735;BME280;59577;52.122;5.406;2023-12-20T12:01:04;101431.91;;;8.61;100.00
71735;BME280;59577;52.122;5.406;2023-12-20T12:03:34;101427.78;;;8.63;100.00
71735;BME280;59577;52.122;5.406;2023-12-20T12:06:01;101430.31;;;8.60;100.00
71735;BME280;59577;52.122;5.406;2023-12-20T12:08:29;101441.31;;;8.55;100.00
71735;BME280;59577;52.122;5.406;2023-12-20T12:10:56;101440.34;;;8.51;100.00
71735;BME280;59577;52.122;5.406;2023-12-20T12:13:23;101435.28;;;8.49;100.00
71735;BME280;59577;52.122;5.406;2023-12-20T12:15:53;101441.81;;;8.48;100.00
71735;BME280;59577;52.122;5.406;2023-12-20T12:18:20;101455.63;;;8.46;100.00
71735;BME280;59577;52.122;5.406;2023-12-20T12:20:47;101444.81;;;8.46;100.00
71735;BME280;59577;52.122;5.406;2023-12-20T12:23:14;101452.09;;;8.46;100.00
71735;BME280;59577;52.122;5.406;2023-12-20T12:25:41;101440.69;;;8.49;100.00
71735;BME280;59577;52.122;5.406;2023-12-20T12:28:09;101440.81;;;8.53;100.00
71735;BME280;59577;52.122;5.406;2023-12-20T12:30:36;101435.91;;;8.55;100.00
71735;BME280;59577;52.122;5.406;2023-12-20T12:33:11;101425.59;;;8.57;100.00
71735;BME280;59577;52.122;5.406;2023-12-20T12:35:40;101411.28;;;8.56;100.00
71735;BME280;59577;52.122;5.406;2023-12-20T12:38:07;101410.50;;;8.56;100.00
71735;BME280;59577;52.122;5.406;2023-12-20T12:40:34;101424.78;;;8.56;100.00
71735;BME280;59577;52.122;5.406;2023-12-20T12:43:02;101412.09;;;8.57;100.00
71735;BME280;59577;52.122;5.406;2023-12-20T12:45:29;101399.38;;;8.57;100.00
71735;BME280;59577;52.122;5.406;2023-12-20T12:47:55;101395.25;;;8.60;100.00
71735;BME280;59577;52.122;5.406;2023-12-20T12:50:22;101399.72;;;8.56;100.00
71735;BME280;59577;52.122;5.406;2023-12-20T12:52:49;101401.94;;;8.54;100.00